Data for 09/15/2013

Time Sea-Level Adjusted Pressure Absolute Pressure Temperature Relative Humidity Dew Point   
(mb) (inHg) (mb) (inHg) (C) (F) (%) (C) (F)
00:05 1022 30.18 851 25.13 15.4 59.6 65 9 48.1
00:10 1022 30.18 851 25.13 15.3 59.5 66 8.9 48.1
00:15 1022 30.18 851 25.13 15.3 59.5 66 9 48.2
00:20 1022 30.18 851 25.13 15.2 59.3 67 9.1 48.4
00:25 1022 30.18 851 25.13 15 59.1 67 9.1 48.3
00:30 1022 30.18 851 25.13 15 58.9 67 9 48.3
00:35 1022 30.18 851 25.13 14.9 58.7 68 9.1 48.3
00:40 1022 30.18 851 25.13 14.8 58.6 68 9 48.2
00:45 1022 30.18 851 25.13 14.6 58.4 69 9 48.3
00:50 1022 30.18 851 25.13 14.6 58.2 68 8.9 48
00:55 1022 30.18 851 25.13 14.6 58.3 68 8.9 48.1
01:00 1022 30.18 851 25.13 14.6 58.3 68 8.9 48
01:05 1022 30.18 851 25.13 14.5 58.1 69 8.9 48.1
01:10 1022 30.18 851 25.13 14.4 57.9 69 8.9 48
01:15 1022 30.18 851 25.13 14.3 57.7 70 8.8 47.9
01:20 1022 30.18 851 25.13 14.1 57.4 70 8.8 47.9
01:25 1022 30.18 851 25.13 14 57.2 70 8.8 47.8
01:30 1022 30.18 851 25.13 14 57.1 71 8.7 47.7
01:35 1022 30.18 851 25.13 13.9 57.1 70 8.7 47.6
01:40 1022 30.18 851 25.13 14 57.1 69 8.5 47.3
01:45 1022 30.18 851 25.13 14 57.3 69 8.5 47.2
01:50 1022 30.18 851 25.13 14 57.3 69 8.4 47.2
01:55 1022 30.18 851 25.13 14 57.3 69 8.4 47.1
02:00 1022 30.18 851 25.13 14.1 57.4 68 8.3 46.9
02:05 1022 30.18 851 25.13 14.1 57.5 67 8.3 46.9
02:10 1022 30.18 851 25.13 14 57.3 68 8.3 47
02:15 1022 30.18 851 25.13 14 57.2 68 8.2 46.8
02:20 1022 30.18 851 25.13 14 57.2 68 8.3 47
02:25 1022 30.18 851 25.13 13.9 56.9 69 8.2 46.8
02:30 1022 30.18 851 25.13 13.8 56.8 69 8.3 46.9
02:35 1022 30.18 851 25.13 13.8 56.8 69 8.2 46.8
02:40 1022 30.18 851 25.13 13.7 56.7 69 8.1 46.6
02:45 1022 30.18 851 25.13 13.7 56.6 69 8.1 46.6
02:50 1022 30.18 851 25.13 13.7 56.6 69 8.2 46.7
02:55 1022 30.18 851 25.13 13.5 56.4 70 8.2 46.7
03:00 1022 30.18 851 25.13 13.4 56.1 70 8.1 46.6
03:05 1022 30.18 851 25.13 13.3 56 70 8.1 46.5
03:10 1022 30.18 851 25.13 13.3 56 70 8 46.3
03:15 1022 30.18 851 25.13 13.3 56 70 8 46.4
03:20 1022 30.18 851 25.13 13.3 56 70 7.9 46.3
03:25 1022 30.18 851 25.13 13.4 56 69 7.8 46.1
03:30 1022 30.18 851 25.13 13.3 56 70 7.9 46.3
03:35 1022 30.18 851 25.13 13.3 55.9 69 7.8 46.1
03:40 1022 30.18 851 25.13 13.3 56 68 7.6 45.6
03:45 1022 30.18 851 25.13 13.4 56.1 68 7.6 45.7
03:50 1022 30.18 851 25.13 13.4 56 68 7.5 45.6
03:55 1022 30.18 851 25.13 13.3 56 68 7.5 45.5
04:00 1022 30.18 851 25.13 13.3 55.9 68 7.6 45.6
04:05 1022 30.18 851 25.13 13.2 55.8 68 7.5 45.5
04:10 1022 30.18 851 25.13 13.3 55.9 67 7.4 45.4
04:15 1022 30.18 851 25.13 13.3 56 67 7.5 45.4
04:20 1022 30.18 851 25.13 13.3 56 67 7.5 45.4
04:25 1022 30.18 851 25.13 13.3 55.9 68 7.5 45.6
04:30 1022 30.18 851 25.13 13.2 55.8 68 7.5 45.4
04:35 1022 30.18 851 25.13 13.2 55.8 68 7.5 45.5
04:40 1022 30.18 851 25.13 13.2 55.8 68 7.6 45.6
04:45 1022 30.18 851 25.13 13.2 55.7 69 7.6 45.6
04:50 1022 30.18 851 25.13 13.1 55.6 69 7.6 45.7
04:55 1022 30.18 851 25.13 13 55.4 69 7.5 45.6
05:00 1022 30.18 851 25.13 13 55.4 70 7.6 45.7
05:05 1022 30.18 851 25.13 12.9 55.2 69 7.5 45.5
05:10 1022 30.18 851 25.13 12.9 55.3 69 7.5 45.5
05:15 1022 30.18 851 25.13 12.9 55.3 69 7.5 45.5
05:20 1022 30.18 851 25.13 12.9 55.3 69 7.4 45.4
05:25 1022 30.18 851 25.13 12.9 55.3 69 7.4 45.4
05:30 1022 30.18 851 25.13 12.9 55.2 69 7.4 45.3
05:35 1022 30.18 851 25.13 13 55.4 69 7.5 45.4
05:40 1022 30.18 851 25.13 13 55.3 69 7.5 45.5
05:45 1022 30.18 851 25.13 12.8 55.1 70 7.5 45.5
05:50 1022 30.18 851 25.13 12.8 55.1 70 7.5 45.5
05:55 1022 30.18 851 25.13 12.8 55 70 7.5 45.5
06:00 1022 30.18 851 25.13 12.7 54.9 70 7.5 45.5
06:05 1022 30.18 851 25.13 12.7 54.8 70 7.4 45.3
06:10 1022 30.18 851 25.13 12.6 54.8 70 7.4 45.3
06:15 1022 30.18 851 25.13 12.6 54.7 70 7.4 45.3
06:20 1022 30.18 851 25.13 12.5 54.4 70 7.3 45.1
06:25 1022 30.18 851 25.13 12.5 54.5 70 7.3 45.1
06:30 1022 30.18 851 25.13 12.5 54.5 71 7.3 45.2
06:35 1022 30.18 851 25.13 12.5 54.6 70 7.2 44.9
06:40 1022 30.18 851 25.13 12.7 54.8 69 7.2 45
06:45 1022 30.18 851 25.13 12.8 55.1 68 7.1 44.8
06:50 1022 30.18 851 25.13 13 55.3 68 7.2 45
06:55 1022 30.18 851 25.13 12.9 55.3 68 7.2 45
07:00 1022 30.18 851 25.13 13 55.4 67 7.1 44.8
07:05 1022 30.18 851 25.13 13.1 55.5 67 7.2 44.9
07:10 1022 30.18 851 25.13 13.1 55.5 67 7.2 44.9
07:15 1022 30.18 851 25.13 13.1 55.6 67 7.2 44.9
07:20 1022 30.18 851 25.13 13.1 55.6 67 7.2 45
07:25 1022 30.18 851 25.13 13.3 55.9 67 7.3 45.2
07:30 1022 30.18 851 25.13 13.3 55.9 67 7.3 45.1
07:35 1022 30.18 851 25.13 13.3 55.9 67 7.4 45.3
07:40 1022 30.18 851 25.13 13.2 55.8 68 7.5 45.4
07:45 1022 30.18 851 25.13 13.3 55.9 67 7.4 45.4
07:50 1022 30.18 851 25.13 13.3 56 67 7.5 45.4
07:55 1022 30.18 851 25.13 13.5 56.3 67 7.5 45.6
08:00 1022 30.18 851 25.13 13.6 56.4 67 7.6 45.7
08:05 1022 30.18 851 25.13 13.7 56.7 66 7.5 45.6
08:10 1022 30.18 851 25.13 14.1 57.3 64 7.5 45.4
08:15 1022 30.18 851 25.13 14.1 57.5 64 7.5 45.4
08:20 1022 30.18 851 25.13 14.2 57.5 64 7.4 45.3
08:25 1022 30.18 851 25.13 14.1 57.4 63 7.4 45.3
08:30 1022 30.18 852 25.16 14.3 57.7 64 7.6 45.7
08:35 1022 30.18 852 25.16 14.2 57.6 64 7.6 45.8
08:40 1022 30.18 851 25.13 14.1 57.5 64 7.5 45.5
08:45 1022 30.18 851 25.13 14.2 57.6 64 7.5 45.5
08:50 1022 30.18 851 25.13 14.3 57.8 64 7.8 46
08:55 1022 30.18 851 25.13 14.4 57.9 65 7.9 46.3
09:00 1022 30.18 851 25.13 14.6 58.3 65 8.1 46.6
09:05 1022 30.18 851 25.13 14.5 58.2 64 7.9 46.3
09:10 1022 30.18 851 25.13 14.5 58 65 8.1 46.6
09:15 1022 30.18 851 25.13 14.6 58.3 64 8 46.4
09:20 1022 30.18 851 25.13 14.5 58.1 65 8.1 46.6
09:25 1022 30.18 851 25.13 14.4 58 66 8.1 46.7
09:30 1022 30.18 851 25.13 14.5 58.2 67 8.6 47.4
09:35 1022 30.18 851 25.13 14.4 57.9 67 8.5 47.3
09:40 1022 30.18 851 25.13 14.3 57.8 67 8.4 47.2
09:45 1022 30.18 851 25.13 14.3 57.8 68 8.6 47.4
09:50 1022 30.18 851 25.13 14.3 57.7 68 8.5 47.3
09:55 1022 30.18 851 25.13 14.3 57.7 68 8.5 47.3
10:00 1022 30.18 851 25.13 14.2 57.6 68 8.5 47.4
10:05 1022 30.18 851 25.13 14.5 58.1 68 8.7 47.6
10:10 1022 30.18 851 25.13 14.6 58.3 68 8.8 47.9
10:15 1022 30.18 851 25.13 14.6 58.3 68 8.9 47.9
10:20 1022 30.18 851 25.13 14.7 58.4 68 8.8 47.9
10:25 1022 30.18 851 25.13 14.7 58.4 68 8.8 47.8
10:30 1022 30.18 851 25.13 14.8 58.6 67 8.8 47.9
10:35 1022 30.18 851 25.13 15 59.1 66 8.9 48
10:40 1022 30.18 851 25.13 15.2 59.3 66 9 48.3
10:45 1022 30.18 851 25.13 15.3 59.6 66 9.1 48.4
10:50 1022 30.18 851 25.13 15.5 59.9 66 9.3 48.8
10:55 1021 30.15 851 25.13 15.4 59.6 67 9.4 49
11:00 1021 30.15 851 25.13 15.5 60 66 9.4 48.8
11:05 1021 30.15 851 25.13 15.5 59.9 67 9.5 49.1
11:10 1021 30.15 851 25.13 15.4 59.8 67 9.5 49
11:15 1021 30.15 851 25.13 15.5 59.8 67 9.4 48.9
11:20 1021 30.15 851 25.13 16 60.8 65 9.4 49
11:25 1021 30.15 851 25.13 16.3 61.3 64 9.6 49.3
11:30 1021 30.15 850 25.1 16.8 62.3 62 9.6 49.3
11:35 1021 30.15 850 25.1 17.2 63 61 9.7 49.5
11:40 1021 30.15 850 25.1 17.3 63.1 60 9.6 49.2
11:45 1021 30.15 850 25.1 17.3 63.2 61 9.7 49.5
11:50 1021 30.15 850 25.1 17.4 63.4 59 9.6 49.2
11:55 1021 30.15 850 25.1 17.7 63.8 59 9.7 49.5
12:00 1021 30.15 850 25.1 17.8 64 58 9.6 49.2
12:05 1021 30.15 850 25.1 18.1 64.6 58 9.8 49.7
12:10 1021 30.15 850 25.1 18.2 64.7 57 9.7 49.5
12:15 1021 30.15 850 25.1 18.5 65.2 56 9.8 49.6
12:20 1021 30.15 850 25.1 18.7 65.6 57 10 50.1
12:25 1021 30.15 850 25.1 18.4 65.1 59 10.2 50.4
12:30 1021 30.15 850 25.1 18.2 64.7 58 10 50
12:35 1021 30.15 850 25.1 18.5 65.2 57 9.9 49.8
12:40 1021 30.15 850 25.1 18.6 65.5 57 10 49.9
12:45 1021 30.15 850 25.1 18.6 65.4 59 10.4 50.8
12:50 1021 30.15 850 25.1 18.4 65.1 59 10.3 50.5
12:55 1020 30.12 850 25.1 18.2 64.8 57 9.8 49.6
13:00 1020 30.12 850 25.1 18.5 65.3 58 10.2 50.3
13:05 1020 30.12 850 25.1 19 66.1 56 10 50
13:10 1020 30.12 850 25.1 19.2 66.5 56 10.3 50.6
13:15 1020 30.12 850 25.1 19 66.3 58 10.6 51.1
13:20 1020 30.12 850 25.1 18.7 65.6 58 10.3 50.6
13:25 1020 30.12 849 25.07 19 66.3 55 10 50
13:30 1020 30.12 849 25.07 19.5 67.2 54 10.2 50.4
13:35 1020 30.12 849 25.07 19.5 67.1 54 10.2 50.4
13:40 1020 30.12 849 25.07 19.3 66.8 56 10.5 50.8
13:45 1020 30.12 849 25.07 19.7 67.4 55 10.6 51.1
13:50 1020 30.12 849 25.07 19.4 66.9 57 10.8 51.4
13:55 1020 30.12 849 25.07 18.9 66 58 10.7 51.2
14:00 1020 30.12 849 25.07 18.9 66 58 10.5 51
14:05 1020 30.12 849 25.07 18.8 65.8 58 10.4 50.7
14:10 1020 30.12 849 25.07 18.8 65.8 57 10.2 50.4
14:15 1020 30.12 849 25.07 19 66.1 57 10.3 50.6
14:20 1020 30.12 849 25.07 18.8 65.9 59 10.7 51.2
14:25 1020 30.12 849 25.07 18.5 65.2 59 10.4 50.6
14:30 1020 30.12 849 25.07 18.5 65.3 59 10.5 50.8
14:35 1020 30.12 849 25.07 18.4 65.1 60 10.6 51
14:40 1019 30.09 849 25.07 18.3 64.9 59 10.4 50.6
14:45 1019 30.09 849 25.07 18.6 65.4 59 10.6 51.1
14:50 1019 30.09 849 25.07 18.5 65.2 60 10.6 51.1
14:55 1019 30.09 849 25.07 18.1 64.7 61 10.7 51.2
15:00 1019 30.09 849 25.07 18 64.4 62 10.7 51.2
15:05 1019 30.09 848 25.04 18 64.4 61 10.5 51
15:10 1019 30.09 848 25.04 18 64.4 62 10.7 51.3
15:15 1019 30.09 848 25.04 18 64.4 62 10.7 51.3
15:20 1019 30.09 848 25.04 18.4 65.2 60 10.7 51.3
15:25 1019 30.09 848 25.04 18.4 65.2 60 10.6 51.1
15:30 1019 30.09 848 25.04 18.5 65.3 60 10.6 51.2
15:35 1019 30.09 848 25.04 18.4 65 61 10.7 51.3
15:40 1019 30.09 848 25.04 18.3 64.9 61 10.7 51.3
15:45 1019 30.09 848 25.04 17.9 64.2 62 10.7 51.2
15:50 1019 30.09 848 25.04 17.9 64.2 62 10.6 51.1
15:55 1019 30.09 848 25.04 18.3 64.9 61 10.7 51.2
16:00 1019 30.09 848 25.04 17.8 64 62 10.5 50.8
16:05 1019 30.09 848 25.04 17.6 63.7 62 10.4 50.8
16:10 1019 30.09 848 25.04 17.5 63.5 65 10.9 51.6
16:15 1019 30.09 848 25.04 17 62.6 67 10.9 51.6
16:20 1019 30.09 848 25.04 16.7 62.1 67 10.6 51.1
16:25 1019 30.09 848 25.04 16.9 62.5 65 10.5 50.8
16:30 1019 30.09 848 25.04 17.2 63 65 10.6 51
16:35 1019 30.09 848 25.04 17.2 62.9 65 10.7 51.3
16:40 1019 30.09 848 25.04 17.1 62.8 66 10.8 51.4
16:45 1019 30.09 848 25.04 17.1 62.8 66 10.8 51.4
16:50 1019 30.09 848 25.04 17.1 62.7 66 10.8 51.4
16:55 1019 30.09 848 25.04 17.1 62.8 66 10.8 51.4
17:00 1019 30.09 848 25.04 17.2 63 66 10.9 51.6
17:05 1019 30.09 848 25.04 17.2 63 67 11 51.8
17:10 1018 30.06 848 25.04 17.2 62.9 66 10.9 51.6
17:15 1018 30.06 848 25.04 17.1 62.8 67 11 51.8
17:20 1018 30.06 848 25.04 17 62.7 67 11 51.8
17:20 1018 30.06 848 25.04 17 62.7 67 11 51.8
17:25 1018 30.06 848 25.04 16.9 62.3 68 11 51.9
17:30 1018 30.06 848 25.04 16.8 62.3 68 11 51.8
17:35 1018 30.06 848 25.04 16.7 62.1 69 11 51.7
17:40 1018 30.06 848 25.04 16.7 62.1 68 10.9 51.7
17:45 1018 30.06 848 25.04 16.6 61.8 69 10.9 51.6
17:50 1018 30.06 848 25.04 16.5 61.7 69 10.9 51.6
17:55 1018 30.06 848 25.04 16.4 61.6 70 10.9 51.7
18:00 1018 30.06 848 25.04 16.3 61.4 70 11 51.7
18:05 1018 30.06 848 25.04 16.3 61.3 70 10.9 51.6
18:10 1018 30.06 848 25.04 16.3 61.3 70 10.9 51.6
18:15 1018 30.06 848 25.04 16.4 61.4 70 10.9 51.7
18:20 1018 30.06 848 25.04 16.3 61.3 70 10.9 51.7
18:25 1018 30.06 848 25.04 16.3 61.3 70 10.9 51.6
18:30 1018 30.06 848 25.04 16.3 61.4 70 10.9 51.7
18:35 1018 30.06 847 25.01 16.3 61.4 71 11 51.8
18:40 1018 30.06 848 25.04 16.3 61.3 71 11 51.8
18:45 1018 30.06 848 25.04 16.3 61.4 70 11 51.7
18:50 1018 30.06 848 25.04 16.3 61.4 71 11 51.9
18:55 1018 30.06 848 25.04 16.3 61.4 71 11.1 51.9
19:00 1018 30.06 848 25.04 16.3 61.4 71 11.1 52
19:05 1018 30.06 848 25.04 16.3 61.4 71 11.1 52
19:10 1019 30.09 848 25.04 16.3 61.4 71 11.1 52
19:15 1019 30.09 848 25.04 16.3 61.4 71 11.1 52
19:20 1019 30.09 848 25.04 16.3 61.3 71 11.1 52.1
19:25 1019 30.09 848 25.04 16.3 61.4 71 11.1 52.1
19:30 1019 30.09 848 25.04 16.3 61.4 71 11.2 52.1
19:35 1019 30.09 848 25.04 16.4 61.4 71 11.1 51.9
19:40 1019 30.09 848 25.04 16.4 61.6 70 11 51.8
19:45 1019 30.09 848 25.04 16.4 61.6 70 11.1 51.9
19:50 1019 30.09 848 25.04 16.4 61.5 70 11.1 51.9
19:55 1019 30.09 848 25.04 16.4 61.5 71 11.2 52.2
20:00 1019 30.09 848 25.04 16.4 61.5 71 11.2 52.1
20:05 1019 30.09 848 25.04 16.3 61.4 72 11.4 52.4
20:10 1019 30.09 848 25.04 16.2 61.1 73 11.4 52.4
20:15 1019 30.09 848 25.04 16.1 61 73 11.3 52.4
20:20 1019 30.09 848 25.04 16.2 61.1 72 11.3 52.3
20:25 1019 30.09 848 25.04 16.2 61.2 72 11.2 52.2
20:30 1019 30.09 848 25.04 16.3 61.4 71 11.1 52
20:35 1019 30.09 848 25.04 16.5 61.6 71 11.1 52
20:40 1019 30.09 848 25.04 16.4 61.6 71 11.2 52.1
20:45 1019 30.09 848 25.04 16.4 61.5 71 11.2 52.2
20:50 1019 30.09 848 25.04 16.4 61.5 71 11.2 52.1
20:55 1019 30.09 848 25.04 16.3 61.4 72 11.3 52.3
21:00 1019 30.09 848 25.04 16.2 61.2 72 11.3 52.3
21:05 1019 30.09 848 25.04 16.2 61.1 73 11.3 52.4
21:10 1019 30.09 848 25.04 16.1 61 73 11.4 52.5
21:15 1019 30.09 848 25.04 16 60.9 73 11.2 52.1
21:20 1019 30.09 848 25.04 16.1 60.9 73 11.3 52.3
21:25 1019 30.09 848 25.04 16 60.8 73 11.3 52.3
21:30 1018 30.06 848 25.04 15.8 60.5 74 11.3 52.3
21:35 1018 30.06 848 25.04 15.8 60.4 74 11.1 52
21:40 1018 30.06 848 25.04 15.9 60.7 73 11.2 52.1
21:45 1018 30.06 848 25.04 16.1 60.9 73 11.2 52.1
21:50 1018 30.06 848 25.04 16.1 61 72 11.2 52.1
21:55 1018 30.06 848 25.04 16.1 61 72 11.1 52
22:00 1018 30.06 848 25.04 16.2 61.1 71 11 51.8
22:05 1018 30.06 848 25.04 16.1 61 72 11.1 52
22:10 1018 30.06 848 25.04 16 60.7 72 11.1 51.9
22:15 1018 30.06 848 25.04 16 60.7 72 11 51.7
22:20 1018 30.06 848 25.04 16 60.7 72 10.9 51.6
22:25 1018 30.06 848 25.04 15.9 60.6 72 10.9 51.6
22:30 1018 30.06 848 25.04 15.8 60.4 72 10.8 51.5
22:35 1018 30.06 848 25.04 15.8 60.4 72 10.7 51.2
22:40 1018 30.06 848 25.04 15.8 60.4 71 10.6 51.2
22:45 1018 30.06 847 25.01 15.9 60.6 71 10.6 51.1
22:50 1018 30.06 847 25.01 15.9 60.7 70 10.6 51.1
22:55 1018 30.06 847 25.01 16 60.8 69 10.3 50.5
23:00 1018 30.06 847 25.01 16.1 61 69 10.5 50.9
23:05 1018 30.06 847 25.01 16.1 60.9 69 10.5 50.8
23:10 1018 30.06 847 25.01 16 60.8 69 10.4 50.8
23:15 1018 30.06 847 25.01 16 60.8 69 10.3 50.6
23:20 1018 30.06 847 25.01 16 60.8 69 10.3 50.6
23:25 1018 30.06 847 25.01 16 60.8 68 10.2 50.4
23:30 1018 30.06 847 25.01 16.1 60.9 67 10.1 50.2
23:35 1018 30.06 847 25.01 16.1 61 67 10.1 50.2
23:40 1018 30.06 847 25.01 16.1 61 67 10.1 50.2
23:45 1018 30.06 847 25.01 16.1 61 67 10.1 50.1
23:50 1018 30.06 847 25.01 16.2 61.1 67 10.1 50.2
23:55 1018 30.06 847 25.01 16.1 61.1 67 10 50.1
24:00 1018 30.06 847 25.01 16.1 61 66 9.9 49.9